Latest Weather Observations for Armidale Airport

IDN60801

Issued at 5:02 pm EST Friday 28 August 2015 (issued every 30 minutes, with the page automatically refreshed every 10 minutes)

About weather observations | Map of weather stations | Latest weather observations for NSW | Other Formats
Station Details ID: 056238 Name: ARMIDALE AIRPORT AWS Lat: -30.53 Lon: 151.62 Height: 1079.0 m
Data from the previous 72 hours. | See also: Recent months at Armidale Airport
Date/Time
EST
Temp
°C
App
Temp
°C
Dew
Point
Rel
Hum
%
Delta-T
°C
Wind Press
QNH
hPa
Press
MSL
hPa
Rain
since 9 am
mm
Dir
 
Spd
km/h
Gust
km/h
Spd
kts
Gust
kts
28/05:00pm 8.9 3.2 -0.4 52 3.9 W 19 22 10 12 1021.9 1021.7 0.0
28/04:30pm 9.3 3.2 0.5 54 3.8 WSW 22 28 12 15 1021.8 1021.5 0.0
28/04:00pm 10.3 4.5 0.1 49 4.4 W 20 28 11 15 1021.5 1021.2 0.0
28/03:30pm 10.0 4.2 -0.2 49 4.4 W 20 30 11 16 1021.4 1021.1 0.0
28/03:00pm 10.4 4.3 0.2 49 4.4 W 22 30 12 16 1021.4 1021.1 0.0
28/02:30pm 9.6 3.4 -0.3 50 4.2 W 22 28 12 15 1021.6 1021.3 0.0
28/02:00pm 9.3 3.2 0.7 55 3.7 W 22 32 12 17 1021.7 1021.4 0.0
28/01:30pm 10.5 3.7 0.8 51 4.3 W 26 37 14 20 1021.6 1021.3 0.0
28/01:00pm 10.5 2.7 1.9 55 3.9 W 32 39 17 21 1021.8 1021.5 0.0
28/12:49pm 10.5 3.1 1.9 55 3.9 W 30 48 16 26 1021.9 1021.7 0.0
28/12:30pm 10.2 2.7 1.3 54 4.0 W 30 41 16 22 1022.2 1022.0 0.0
28/12:00pm 10.1 2.2 2.5 59 3.4 W 33 41 18 22 1022.6 1022.3 0.0
28/11:30am 8.3 0.8 1.5 62 3.0 WSW 30 37 16 20 1022.9 1022.7 0.0
28/11:00am 9.7 3.2 4.5 70 2.5 W 28 44 15 24 1023.0 1022.8 0.0
28/10:30am 7.9 2.0 4.1 77 1.8 W 24 33 13 18 1023.2 1023.0 0.0
28/10:00am 7.3 0.6 3.7 78 1.6 W 28 35 15 19 1023.4 1023.1 0.0
28/09:30am 6.2 0.3 4.0 86 1.0 WSW 24 32 13 17 1023.4 1023.1 0.0
28/09:20am 7.2 0.7 4.7 84 1.2 W 28 37 15 20 1023.2 1023.0 0.0
28/09:00am 6.5 0.0 4.7 88 0.8 W 28 33 15 18 1023.2 1023.0 2.8
28/08:30am 5.4 -0.3 5.1 98 0.1 W 24 32 13 17 1023.1 1022.9 2.8
28/08:00am 5.3 0.0 5.0 98 0.1 W 22 30 12 16 1022.8 1022.6 2.8
28/07:30am 4.4 -0.7 4.1 98 0.1 W 20 24 11 13 1022.5 1022.2 2.8
28/07:00am 4.1 -1.4 3.8 98 0.1 WNW 22 32 12 17 1022.1 1021.9 2.8
28/06:30am 4.1 -0.9 3.8 98 0.1 W 19 24 10 13 1022.0 1021.8 2.8
28/06:00am 4.2 -0.4 3.9 98 0.1 W 17 28 9 15 1021.7 1021.4 2.8
28/05:30am 4.3 -1.2 4.0 98 0.1 W 22 32 12 17 1021.1 1020.9 2.8
28/05:00am 4.6 -1.2 4.5 99 0.0 W 24 32 13 17 1020.9 1020.6 2.8
28/04:30am 4.7 -1.9 4.4 98 0.1 W 28 37 15 20 1020.6 1020.3 2.8
28/04:00am 5.0 -0.7 4.7 98 0.1 W 24 33 13 18 1020.5 1020.2 2.8
28/03:30am 5.0 -1.1 4.7 98 0.1 W 26 35 14 19 1020.5 1020.2 2.8
28/03:00am 5.4 -0.6 5.3 99 0.0 W 26 35 14 19 1020.5 1020.2 2.8
28/02:30am 5.7 0.1 5.4 98 0.1 W 24 32 13 17 1020.7 1020.4 2.8
28/02:00am 5.8 1.2 5.7 99 0.0 W 19 26 10 14 1020.9 1020.6 2.8
28/01:30am 6.1 1.0 6.0 99 0.0 WNW 22 33 12 18 1021.3 1021.0 2.8
28/01:00am 6.3 1.6 6.2 99 0.0 W 20 32 11 17 1021.5 1021.2 2.8
28/12:30am 6.2 2.1 6.1 99 0.0 WNW 17 22 9 12 1021.6 1021.3 2.8
28/12:00am 6.3 1.6 6.2 99 0.0 W 20 28 11 15 1021.8 1021.5 2.8
 
Date/Time
EST
Temp
°C
App
Temp
°C
Dew
Point
Rel
Hum
%
Delta-T
°C
Wind Press
QNH
hPa
Press
MSL
hPa
Rain
since 9 am
mm
Dir
 
Spd
km/h
Gust
km/h
Spd
kts
Gust
kts
27/11:30pm 6.4 2.3 6.3 99 0.0 W 17 24 9 13 1021.8 1021.5 2.8
27/11:00pm 6.6 2.6 6.5 99 0.0 W 17 20 9 11 1021.8 1021.5 2.8
27/10:30pm 6.6 2.0 6.5 99 0.0 W 20 24 11 13 1021.9 1021.7 2.8
27/10:00pm 6.5 1.9 6.4 99 0.0 WNW 20 26 11 14 1022.0 1021.8 2.8
27/09:30pm 6.8 2.8 6.7 99 0.0 W 17 22 9 12 1022.2 1022.0 2.8
27/09:00pm 6.9 2.9 6.8 99 0.0 W 17 20 9 11 1022.2 1022.0 2.8
27/08:30pm 6.9 2.9 6.8 99 0.0 W 17 22 9 12 1021.9 1021.7 2.8
27/08:00pm 7.0 3.8 6.9 99 0.0 WNW 13 17 7 9 1021.6 1021.3 2.8
27/07:31pm 7.0 3.8 6.9 99 0.0 W 13 19 7 10 1021.5 1021.2 2.8
27/07:30pm 7.0 3.8 6.9 99 0.0 W 13 19 7 10 1021.6 1021.3 2.8
27/07:00pm 7.0 3.1 6.9 99 0.0 W 17 24 9 13 1021.7 1021.4 2.8
27/06:59pm 7.0 3.1 6.9 99 0.0 W 17 24 9 13 1021.7 1021.4 2.8
27/06:30pm 6.9 3.3 6.8 99 0.0 WNW 15 19 8 10 1021.3 1021.0 2.8
27/06:10pm 7.0 3.8 6.9 99 0.0 W 13 17 7 9 1020.9 1020.6 2.8
27/06:00pm 7.0 3.8 6.9 99 0.0 W 13 17 7 9 1020.9 1020.6 2.8
27/05:30pm 7.0 3.4 6.9 99 0.0 W 15 19 8 10 1020.7 1020.4 2.4
27/05:23pm 7.0 3.4 6.9 99 0.0 W 15 19 8 10 1020.6 1020.3 2.4
27/05:00pm 7.2 3.7 7.1 99 0.0 W 15 20 8 11 1020.4 1020.1 2.4
27/04:37pm 7.1 3.2 7.0 99 0.0 W 17 22 9 12 1020.3 1020.0 2.4
27/04:30pm 7.2 2.7 7.1 99 0.0 W 20 26 11 14 1020.3 1020.0 2.4
27/04:13pm 7.1 2.8 7.0 99 0.0 W 19 26 10 14 1020.1 1019.8 2.4
27/04:12pm 7.1 2.8 7.0 99 0.0 W 19 26 10 14 1020.1 1019.8 2.4
27/04:00pm 7.1 2.6 7.0 99 0.0 W 20 26 11 14 1020.3 1020.0 2.4
27/03:35pm 7.1 3.2 7.0 99 0.0 WSW 17 20 9 11 1020.1 1019.8 1.8
27/03:30pm 7.2 3.3 6.9 98 0.1 WSW 17 20 9 11 1020.3 1020.0 1.8
27/03:00pm 8.1 4.4 7.8 98 0.2 WNW 17 20 9 11 1020.0 1019.7 1.8
27/02:30pm 8.1 4.7 7.8 98 0.2 WNW 15 20 8 11 1020.4 1020.1 1.8
27/02:00pm 8.0 3.7 7.7 98 0.2 WNW 20 26 11 14 1020.8 1020.5 1.2
27/01:30pm 8.0 3.9 7.7 98 0.2 WNW 19 22 10 12 1021.0 1020.7 1.0
27/01:06pm 8.1 4.0 7.8 98 0.2 WNW 19 24 10 13 1021.4 1021.1 0.6
27/01:00pm 8.0 3.9 7.7 98 0.2 WNW 19 26 10 14 1021.4 1021.1 0.6
27/12:30pm 8.1 3.2 7.0 93 0.5 WNW 22 30 12 16 1021.7 1021.4 0.0
27/12:00pm 9.4 3.8 5.6 77 1.8 WNW 24 30 13 16 1022.0 1021.8 0.0
27/11:30am 10.8 5.9 4.3 64 3.1 NW 19 24 10 13 1021.9 1021.7 0.0
27/11:00am 10.4 5.2 3.7 63 3.1 WNW 20 26 11 14 1022.4 1022.1 0.0
27/10:30am 10.5 6.5 3.1 60 3.4 WNW 13 20 7 11 1022.0 1021.8 0.0
27/10:00am 9.6 4.9 2.9 63 3.1 WNW 17 22 9 12 1022.6 1022.3 0.0
27/09:30am 9.8 5.3 2.2 59 3.4 WNW 15 19 8 10 1022.9 1022.7 0.0
27/09:00am 9.8 4.6 2.4 60 3.3 WNW 19 26 10 14 1023.0 1022.8 0.0
27/08:30am 9.4 3.4 1.3 57 3.6 WNW 22 28 12 15 1022.7 1022.5 0.0
27/08:00am 8.8 3.3 1.9 62 3.1 NW 20 26 11 14 1022.8 1022.6 0.0
27/07:30am 8.5 3.1 2.7 67 2.6 NW 20 28 11 15 1022.8 1022.6 0.0
27/07:00am 8.4 3.4 3.7 72 2.2 NW 19 22 10 12 1022.4 1022.1 0.0
27/06:30am 8.3 4.0 5.1 80 1.5 NW 17 22 9 12 1022.2 1022.0 0.0
27/06:00am 8.2 4.3 7.1 93 0.5 NW 17 20 9 11 1021.8 1021.5 0.0
27/05:30am 8.4 4.3 8.0 97 0.2 NW 19 24 10 13 1021.8 1021.5 0.0
27/05:00am 8.0 4.2 7.7 98 0.2 WNW 17 20 9 11 1021.8 1021.5 0.0
27/04:30am 8.2 4.5 7.9 98 0.2 WNW 17 22 9 12 1021.9 1021.7 0.0
27/04:00am 7.9 4.9 7.6 98 0.2 NW 13 15 7 8 1021.6 1021.3 0.0
27/03:30am 7.6 5.8 7.3 98 0.1 NW 6 9 3 5 1021.5 1021.2 0.0
27/03:00am 7.6 5.7 7.5 99 0.0 SW 7 7 4 4 1020.9 1020.6 0.0
27/02:30am 7.4 5.4 7.1 98 0.1 W 7 11 4 6 1021.1 1020.9 0.0
27/02:00am 7.7 7.1 7.6 99 0.0 CALM 0 0 0 0 1021.5 1021.2 0.0
27/01:30am 7.8 5.6 7.7 99 0.1 NNE 9 11 5 6 1021.3 1021.0 0.0
27/01:00am 7.7 5.4 7.4 98 0.1 N 9 11 5 6 1022.2 1022.0 0.0
27/12:30am 7.6 7.0 7.3 98 0.1 CALM 0 0 0 0 1022.5 1022.2 0.0
27/12:18am 7.7 7.1 7.4 98 0.1 CALM 0 0 0 0 1022.5 1022.2 0.0
27/12:00am 7.8 7.2 7.5 98 0.1 CALM 0 0 0 0 1022.6 1022.3 0.0
 
Date/Time
EST
Temp
°C
App
Temp
°C
Dew
Point
Rel
Hum
%
Delta-T
°C
Wind Press
QNH
hPa
Press
MSL
hPa
Rain
since 9 am
mm
Dir
 
Spd
km/h
Gust
km/h
Spd
kts
Gust
kts
26/11:30pm 7.7 7.1 7.4 98 0.1 CALM 0 0 0 0 1022.9 1022.7 0.0
26/11:00pm 7.5 6.9 7.2 98 0.1 CALM 0 0 0 0 1023.0 1022.8 0.0
26/10:34pm 7.6 5.8 7.3 98 0.1 W 6 7 3 4 1023.1 1022.9 0.0
26/10:30pm 7.5 5.5 7.2 98 0.1 WSW 7 9 4 5 1023.1 1022.9 0.0
26/10:00pm 7.9 5.6 7.6 98 0.1 W 9 11 5 6 1023.0 1022.8 0.0
26/09:30pm 8.0 5.4 7.7 98 0.2 W 11 11 6 6 1023.2 1023.0 0.0
26/09:00pm 7.4 5.4 7.1 98 0.1 W 7 7 4 4 1023.1 1022.9 0.0
26/08:30pm 7.8 5.5 7.5 98 0.2 W 9 11 5 6 1023.2 1023.0 0.0
26/08:00pm 8.0 4.9 7.4 96 0.3 W 13 15 7 8 1023.4 1023.1 0.0
26/07:30pm 8.0 4.9 7.2 95 0.4 W 13 13 7 7 1023.4 1023.1 0.0
26/07:00pm 7.6 4.7 6.4 92 0.6 W 11 15 6 8 1022.9 1022.7 0.0
26/06:30pm 8.5 4.8 6.5 87 1.0 WSW 15 17 8 9 1022.1 1021.9 0.0
26/06:00pm 9.5 6.2 6.2 80 1.6 WSW 13 15 7 8 1021.7 1021.4 0.0
26/05:30pm 11.0 7.3 6.2 72 2.4 W 15 20 8 11 1021.7 1021.4 0.0
26/05:00pm 12.7 8.1 5.4 61 3.6 W 19 26 10 14 1021.1 1020.9 0.0
26/04:30pm 13.5 8.7 5.4 58 4.0 WSW 20 30 11 16 1020.8 1020.5 0.0
26/04:00pm 13.6 8.9 5.0 56 4.2 W 19 24 10 13 1020.7 1020.4 0.0
26/03:30pm 14.0 9.2 4.9 54 4.5 WNW 19 26 10 14 1020.4 1020.1 0.0
26/03:00pm 14.7 9.3 4.4 50 5.1 W 22 30 12 16 1020.1 1019.8 0.0
26/02:30pm 14.9 9.8 6.0 55 4.5 W 22 30 12 16 1020.3 1020.0 0.0
26/02:00pm 14.2 8.3 5.6 56 4.3 WNW 26 33 14 18 1020.8 1020.5 0.0
26/01:30pm 14.1 8.2 6.0 58 4.1 WNW 26 32 14 17 1020.8 1020.5 0.0
26/01:00pm 13.3 7.8 5.9 61 3.7 W 24 35 13 19 1020.9 1020.6 0.0
26/12:30pm 12.8 6.9 5.7 62 3.5 W 26 37 14 20 1020.8 1020.5 0.0
26/12:00pm 12.4 6.6 6.2 66 3.1 WNW 26 32 14 17 1021.3 1021.0 0.0
26/11:30am 12.0 6.4 7.1 72 2.5 WNW 26 33 14 18 1021.5 1021.2 0.0
26/11:00am 10.7 5.2 6.1 73 2.3 W 24 32 13 17 1021.7 1021.4 0.0
26/10:30am 9.7 4.7 6.4 80 1.6 WNW 22 30 12 16 1022.1 1021.9 0.0
26/10:29am 9.7 4.4 6.6 81 1.5 WNW 24 30 13 16 1022.2 1022.0 0.0
26/10:00am 9.1 4.0 6.2 82 1.4 WNW 22 30 12 16 1022.1 1021.9 0.0
26/09:30am 8.2 3.3 6.7 90 0.7 WNW 22 28 12 15 1022.0 1021.8 0.0
26/09:00am 7.3 1.9 6.4 94 0.4 WNW 24 32 13 17 1022.2 1022.0 0.0
26/08:30am 6.6 1.6 6.3 98 0.1 WNW 22 30 12 16 1022.1 1021.9 0.0
26/08:00am 6.3 1.6 6.0 98 0.1 WNW 20 26 11 14 1021.9 1021.7 0.0
26/07:30am 6.2 1.5 5.9 98 0.1 W 20 28 11 15 1021.8 1021.5 0.0
26/07:00am 6.0 1.2 5.7 98 0.1 W 20 30 11 16 1021.1 1020.9 0.0
26/06:30am 5.8 0.2 5.4 97 0.2 W 24 33 13 18 1020.7 1020.4 0.0
26/06:00am 5.9 0.7 5.5 97 0.2 W 22 30 12 16 1020.5 1020.2 0.0
26/05:30am 5.9 -0.1 5.5 97 0.2 WNW 26 35 14 19 1020.1 1019.8 0.0
26/05:00am 6.0 -0.4 5.4 96 0.3 W 28 41 15 22 1020.0 1019.7 0.0
26/04:30am 6.1 0.6 5.7 97 0.2 WNW 24 35 13 19 1019.8 1019.5 0.0
26/04:00am 6.2 0.6 5.5 95 0.3 WNW 24 30 13 16 1019.6 1019.3 0.0
26/03:30am 6.3 -0.1 5.4 94 0.4 WNW 28 37 15 20 1019.7 1019.4 0.0
26/03:23am 6.3 -0.1 5.3 93 0.5 WNW 28 35 15 19 1019.7 1019.4 0.0
26/03:00am 6.3 0.6 5.1 92 0.6 WNW 24 35 13 19 1019.9 1019.6 0.0
26/02:47am 6.4 0.7 5.0 91 0.7 W 24 32 13 17 1019.9 1019.6 0.0
26/02:30am 6.5 0.4 5.0 90 0.7 WNW 26 35 14 19 1020.0 1019.7 0.0
26/02:00am 6.5 0.9 5.5 93 0.5 WNW 24 32 13 17 1020.1 1019.8 0.0
26/01:30am 6.7 1.7 6.4 98 0.1 W 22 32 12 17 1020.4 1020.1 0.0
26/01:15am 6.8 1.8 6.5 98 0.1 W 22 33 12 18 1020.4 1020.1 0.0
26/01:00am 6.9 1.6 6.6 98 0.1 W 24 28 13 15 1020.5 1020.2 0.0
26/12:44am 7.0 2.1 6.7 98 0.1 W 22 28 12 15 1020.4 1020.1 0.0
26/12:30am 7.1 2.2 6.8 98 0.1 WNW 22 28 12 15 1020.5 1020.2 0.0
26/12:00am 7.2 2.3 6.9 98 0.1 WNW 22 33 12 18 1020.7 1020.4 0.0
 
Date/Time
EST
Temp
°C
App
Temp
°C
Dew
Point
Rel
Hum
%
Delta-T
°C
Wind Press
QNH
hPa
Press
MSL
hPa
Rain
since 9 am
mm
Dir
 
Spd
km/h
Gust
km/h
Spd
kts
Gust
kts
25/11:47pm 7.3 2.8 7.0 98 0.1 WNW 20 24 11 13 1020.8 1020.5 0.0
25/11:41pm 7.3 2.8 7.0 98 0.1 W 20 28 11 15 1020.8 1020.5 0.0
25/11:30pm 7.4 2.9 7.1 98 0.1 W 20 30 11 16 1020.8 1020.5 0.0
25/11:00pm 7.6 3.2 7.3 98 0.1 W 20 26 11 14 1020.8 1020.5 0.0
25/10:30pm 7.8 3.6 7.5 98 0.2 W 19 24 10 13 1021.0 1020.7 0.0
25/10:00pm 7.9 3.7 7.6 98 0.2 W 19 24 10 13 1020.9 1020.6 0.0
25/09:30pm 8.1 5.1 7.5 96 0.3 W 13 17 7 9 1020.9 1020.6 0.0
25/09:28pm 8.1 5.0 7.3 95 0.4 W 13 17 7 9 1020.9 1020.6 0.0
25/09:00pm 8.2 4.3 7.1 93 0.5 W 17 24 9 13 1020.9 1020.6 0.0
25/08:30pm 8.2 4.2 6.7 90 0.7 WNW 17 20 9 11 1020.9 1020.6 0.0
25/08:00pm 8.9 4.0 6.9 87 1.0 NW 22 28 12 15 1021.0 1020.7 0.0
25/07:30pm 9.4 5.5 7.3 87 1.1 NW 17 24 9 13 1020.8 1020.5 0.0
25/07:00pm 9.4 5.4 6.8 84 1.3 WNW 17 20 9 11 1020.6 1020.3 0.0
25/06:30pm 9.6 5.6 6.7 82 1.4 WNW 17 20 9 11 1020.1 1019.8 0.0
25/06:00pm 10.1 6.8 6.6 79 1.7 WNW 13 19 7 10 1019.7 1019.4 0.0
25/05:30pm 11.1 7.4 6.3 72 2.4 NW 15 22 8 12 1019.4 1019.0 0.0

Other Formats:

Comma delimited format used in spreadsheet applications
http://www.bom.gov.au/fwo/IDN60801/IDN60801.95773.axf

JavaScript Object Notation format (JSON) in row-major order
http://www.bom.gov.au/fwo/IDN60801/IDN60801.95773.json